createdAt,value
2019-05-13T00:01:25.115Z,1.80
2019-05-13T00:03:58.696Z,2.00
2019-05-13T00:06:50.296Z,1.87
2019-05-13T00:08:59.923Z,1.93
2019-05-13T00:11:30.326Z,1.73
2019-05-13T00:14:08.431Z,1.70
2019-05-13T00:16:46.677Z,1.70
2019-05-13T00:19:18.790Z,1.77
2019-05-13T00:21:48.129Z,1.97
2019-05-13T00:24:17.370Z,1.80
2019-05-13T00:26:46.455Z,2.00
2019-05-13T00:29:17.457Z,2.20
2019-05-13T00:31:49.091Z,2.10
2019-05-13T00:34:19.366Z,2.10
2019-05-13T00:36:48.590Z,2.10
2019-05-13T00:39:41.278Z,1.80
2019-05-13T00:42:14.214Z,1.77
2019-05-13T00:44:44.467Z,2.43
2019-05-13T00:47:14.468Z,2.07
2019-05-13T00:49:43.871Z,2.07
2019-05-13T00:52:14.319Z,1.97
2019-05-13T00:54:46.445Z,1.93
2019-05-13T00:57:15.701Z,2.60
2019-05-13T00:59:44.796Z,2.37
2019-05-13T01:02:14.062Z,2.47
2019-05-13T01:04:44.193Z,2.17
2019-05-13T01:07:25.266Z,2.33
2019-05-13T01:09:45.537Z,2.20
2019-05-13T01:12:14.586Z,1.90
2019-05-13T01:14:46.010Z,2.20
2019-05-13T01:17:15.496Z,2.20
2019-05-13T01:19:44.561Z,2.07
2019-05-13T01:22:13.901Z,2.63
2019-05-13T01:24:45.474Z,2.00
2019-05-13T01:27:14.590Z,1.90
2019-05-13T01:29:45.025Z,2.40
2019-05-13T01:32:15.018Z,2.00
2019-05-13T01:34:47.139Z,2.60
2019-05-13T01:37:23.366Z,2.77
2019-05-13T01:39:57.740Z,2.10
2019-05-13T01:42:26.845Z,2.53
2019-05-13T01:44:58.963Z,2.00
2019-05-13T01:47:27.999Z,2.47
2019-05-13T01:49:57.253Z,2.00
2019-05-13T01:52:26.475Z,2.27
2019-05-13T01:54:55.547Z,2.10
2019-05-13T01:57:24.607Z,2.60
2019-05-13T01:59:55.546Z,2.40
2019-05-13T02:02:25.671Z,2.53
2019-05-13T02:04:54.742Z,2.17
2019-05-13T02:07:24.864Z,2.30
2019-05-13T02:09:55.831Z,2.10
2019-05-13T02:12:27.114Z,2.23
2019-05-13T02:14:56.174Z,2.27
2019-05-13T02:17:26.300Z,1.80
2019-05-13T02:19:55.363Z,2.17
2019-05-13T02:22:29.433Z,2.50
2019-05-13T02:24:59.949Z,2.20
2019-05-13T02:27:29.038Z,1.73
2019-05-13T02:29:58.084Z,2.00
2019-05-13T02:32:27.143Z,2.10
2019-05-13T02:34:56.217Z,2.80
2019-05-13T02:37:29.195Z,2.40
2019-05-13T02:39:56.106Z,2.60
2019-05-13T02:42:25.155Z,2.20
2019-05-13T02:45:03.392Z,2.67
2019-05-13T02:47:33.654Z,2.30
2019-05-13T02:50:05.088Z,2.30
2019-05-13T02:52:33.702Z,2.13
2019-05-13T02:55:04.353Z,1.83
2019-05-13T02:57:33.516Z,2.23
2019-05-13T03:00:04.148Z,2.10
2019-05-13T03:02:33.885Z,2.20
2019-05-13T03:05:03.423Z,2.43
2019-05-13T03:07:34.289Z,2.20
2019-05-13T03:10:08.052Z,2.33
2019-05-13T03:12:37.183Z,2.77
2019-05-13T03:15:13.077Z,1.97
2019-05-13T03:18:06.255Z,2.93
2019-05-13T03:20:39.394Z,2.40
2019-05-13T03:23:08.489Z,3.30
2019-05-13T03:25:37.555Z,2.30
2019-05-13T03:28:06.869Z,2.50
2019-05-13T03:30:37.348Z,2.33
2019-05-13T03:33:10.872Z,2.77
2019-05-13T03:35:45.697Z,2.80
2019-05-13T03:38:13.026Z,1.90
2019-05-13T03:40:42.998Z,2.13
2019-05-13T03:43:13.000Z,2.13
2019-05-13T03:45:43.517Z,2.20
2019-05-13T03:48:17.350Z,3.00
2019-05-13T03:50:48.367Z,2.50
2019-05-13T03:53:17.477Z,2.70
2019-05-13T03:55:46.862Z,2.87
2019-05-13T03:58:16.058Z,3.27
2019-05-13T04:00:54.137Z,2.13
2019-05-13T04:03:26.144Z,2.87
2019-05-13T04:06:03.721Z,2.40
2019-05-13T04:08:33.110Z,2.43
2019-05-13T04:11:04.477Z,2.13
2019-05-13T04:13:38.096Z,2.40
2019-05-13T04:16:07.289Z,2.40
2019-05-13T04:18:36.354Z,2.07
2019-05-13T04:21:12.620Z,3.00
2019-05-13T04:23:42.340Z,2.00
2019-05-13T04:26:09.800Z,2.13
2019-05-13T04:28:44.132Z,2.10
2019-05-13T04:31:14.764Z,2.50
2019-05-13T04:33:49.236Z,2.70
2019-05-13T04:36:23.891Z,2.20
2019-05-13T04:39:03.346Z,2.20
2019-05-13T04:41:33.541Z,2.00
2019-05-13T04:44:04.056Z,2.80
2019-05-13T04:46:33.764Z,2.43
2019-05-13T04:49:03.889Z,2.57
2019-05-13T04:51:36.068Z,2.40
2019-05-13T04:54:05.211Z,2.10
2019-05-13T04:56:35.845Z,2.87
2019-05-13T04:59:05.854Z,2.93
2019-05-13T05:02:22.355Z,2.57
2019-05-13T05:05:22.622Z,2.90
2019-05-13T05:08:22.254Z,2.77
2019-05-13T05:11:34.603Z,2.20
2019-05-13T05:14:22.260Z,2.57
2019-05-13T05:17:17.397Z,2.40
2019-05-13T05:20:07.349Z,2.20
2019-05-13T05:22:58.491Z,2.20
2019-05-13T05:26:13.580Z,2.23
2019-05-13T05:29:23.892Z,2.80
2019-05-13T05:32:22.273Z,2.20
2019-05-13T05:35:36.976Z,2.30
2019-05-13T05:38:18.670Z,2.40
2019-05-13T05:40:52.160Z,1.70
2019-05-13T05:43:23.404Z,1.97
2019-05-13T05:45:54.157Z,2.57
2019-05-13T05:48:25.572Z,2.57
2019-05-13T05:50:56.333Z,2.50
2019-05-13T05:53:27.186Z,2.53
2019-05-13T05:55:59.461Z,1.97
2019-05-13T05:58:31.562Z,2.43
2019-05-13T06:01:06.656Z,3.07
2019-05-13T06:03:37.977Z,2.63
2019-05-13T06:06:11.739Z,2.53
2019-05-13T06:08:42.718Z,3.20
2019-05-13T06:11:12.067Z,2.50
2019-05-13T06:13:43.842Z,2.60
2019-05-13T06:16:13.150Z,2.80
2019-05-13T06:18:43.313Z,2.50
2019-05-13T06:21:13.729Z,2.80
2019-05-13T06:23:57.068Z,2.20
2019-05-13T06:26:26.126Z,2.90
2019-05-13T06:28:55.212Z,2.20
2019-05-13T06:31:25.721Z,2.30
2019-05-13T06:33:56.298Z,2.90
2019-05-13T06:36:25.357Z,3.20
2019-05-13T06:38:54.430Z,2.67
2019-05-13T06:41:26.413Z,2.80
2019-05-13T06:44:02.638Z,2.67
2019-05-13T06:46:32.404Z,2.77
2019-05-13T06:49:06.690Z,2.93
2019-05-13T06:51:35.775Z,2.60
2019-05-13T06:54:11.293Z,3.10
2019-05-13T06:56:35.955Z,3.37
2019-05-13T06:59:05.041Z,2.73
2019-05-13T07:01:38.417Z,2.60
2019-05-13T07:04:07.625Z,3.17
2019-05-13T07:06:41.819Z,3.63
2019-05-13T07:09:16.234Z,2.70
2019-05-13T07:11:45.307Z,2.80
2019-05-13T07:14:14.501Z,3.53
2019-05-13T07:16:43.742Z,3.17
2019-05-13T07:19:15.943Z,3.00
2019-05-13T07:21:45.341Z,3.20
2019-05-13T07:24:18.029Z,2.40
2019-05-13T07:26:52.304Z,2.90
2019-05-13T07:29:28.171Z,3.10
2019-05-13T07:32:08.359Z,3.00
2019-05-13T07:34:43.921Z,2.77
2019-05-13T07:37:11.523Z,3.13
2019-05-13T07:39:44.706Z,2.90
2019-05-13T07:42:16.314Z,3.23
2019-05-13T07:44:46.582Z,2.43
2019-05-13T07:47:17.412Z,2.43
2019-05-13T07:49:46.398Z,2.37
2019-05-13T07:52:16.562Z,2.67
2019-05-13T07:54:45.638Z,2.97
2019-05-13T07:57:16.336Z,2.50
2019-05-13T07:59:48.553Z,2.93
2019-05-13T08:02:17.599Z,3.97
2019-05-13T08:04:49.359Z,3.03
2019-05-13T08:07:23.824Z,2.77
2019-05-13T08:09:56.085Z,2.77
2019-05-13T08:12:23.936Z,3.10
2019-05-13T08:14:54.743Z,2.60
2019-05-13T08:17:28.701Z,3.43
2019-05-13T08:19:57.924Z,3.20
2019-05-13T08:22:27.259Z,2.83
2019-05-13T08:24:57.449Z,3.23
2019-05-13T08:27:30.760Z,3.30
2019-05-13T08:30:01.669Z,2.70
2019-05-13T08:32:31.530Z,2.70
2019-05-13T08:35:08.374Z,2.93
2019-05-13T08:37:34.695Z,2.67
2019-05-13T08:40:09.024Z,3.00
2019-05-13T08:42:41.513Z,2.20
2019-05-13T08:45:12.074Z,2.67
2019-05-13T08:47:55.704Z,3.30
2019-05-13T08:50:24.802Z,2.67
2019-05-13T08:52:53.889Z,3.20
2019-05-13T08:55:23.154Z,2.80
2019-05-13T08:57:55.170Z,2.83
2019-05-13T09:00:47.395Z,3.17
2019-05-13T09:03:16.503Z,2.90
2019-05-13T09:05:45.548Z,2.70
2019-05-13T09:08:15.997Z,2.77
2019-05-13T09:10:47.854Z,2.50
2019-05-13T09:13:17.938Z,2.60
2019-05-13T09:15:51.666Z,3.07
2019-05-13T09:18:22.960Z,3.10
2019-05-13T09:20:53.926Z,2.50
2019-05-13T09:23:27.556Z,2.73
2019-05-13T09:25:56.665Z,3.10
2019-05-13T09:28:25.784Z,2.77
2019-05-13T09:30:58.043Z,3.00
2019-05-13T09:33:28.512Z,2.77
2019-05-13T09:36:13.219Z,2.90
2019-05-13T09:38:42.159Z,2.73
2019-05-13T09:41:12.329Z,2.90
2019-05-13T09:43:44.265Z,2.67
2019-05-13T09:46:15.223Z,3.27
2019-05-13T09:48:48.037Z,3.47
2019-05-13T09:51:17.096Z,3.03
2019-05-13T09:53:49.193Z,2.33
2019-05-13T09:56:18.762Z,2.50
2019-05-13T09:58:51.369Z,3.40
2019-05-13T10:01:24.460Z,2.80
2019-05-13T10:03:58.102Z,2.80
2019-05-13T10:06:25.766Z,2.40
2019-05-13T10:08:57.759Z,2.67
2019-05-13T10:11:27.110Z,2.60
2019-05-13T10:13:58.016Z,3.17
2019-05-13T10:16:31.162Z,2.43
2019-05-13T10:18:58.149Z,3.10
2019-05-13T10:21:34.124Z,2.90
2019-05-13T10:24:03.202Z,2.67
2019-05-13T10:26:32.505Z,2.63
2019-05-13T10:29:01.653Z,2.13
2019-05-13T10:31:34.311Z,2.70
2019-05-13T10:34:03.403Z,2.03
2019-05-13T10:36:32.635Z,2.30
2019-05-13T10:39:01.814Z,2.30
2019-05-13T10:41:42.062Z,2.50
2019-05-13T10:44:12.103Z,2.30
2019-05-13T10:46:43.840Z,2.30
2019-05-13T10:49:12.950Z,2.40
2019-05-13T10:51:43.313Z,2.07
2019-05-13T10:54:16.991Z,2.20
2019-05-13T10:56:46.083Z,2.13
2019-05-13T10:59:15.253Z,2.03
2019-05-13T11:01:44.275Z,2.17
2019-05-13T11:04:14.448Z,2.50
2019-05-13T11:06:44.928Z,2.80
2019-05-13T11:09:18.525Z,2.30
2019-05-13T11:11:52.793Z,2.50
2019-05-13T11:14:22.178Z,2.27
2019-05-13T11:16:52.579Z,3.03
2019-05-13T11:19:23.024Z,1.77
2019-05-13T11:21:53.977Z,2.50
2019-05-13T11:24:23.237Z,2.37
2019-05-13T11:26:54.833Z,2.67
2019-05-13T11:29:25.620Z,2.50
2019-05-13T11:31:54.988Z,2.10
2019-05-13T11:34:32.623Z,2.50
2019-05-13T11:37:08.102Z,2.47
2019-05-13T11:39:38.514Z,2.43
2019-05-13T11:42:13.214Z,2.30
2019-05-13T11:44:44.988Z,2.27
2019-05-13T11:47:15.098Z,2.27
2019-05-13T11:49:51.338Z,2.20
2019-05-13T11:52:22.708Z,1.97
2019-05-13T11:55:01.787Z,2.37
2019-05-13T11:57:31.038Z,2.10
2019-05-13T12:00:06.483Z,2.43
2019-05-13T12:02:50.992Z,2.50
2019-05-13T12:05:22.764Z,2.50
2019-05-13T12:07:55.181Z,2.60
2019-05-13T12:10:28.895Z,1.90
2019-05-13T12:12:58.441Z,2.40
2019-05-13T12:15:44.542Z,2.47
2019-05-13T12:18:02.840Z,2.50
2019-05-13T12:20:38.586Z,2.10
2019-05-13T12:23:08.786Z,2.10
2019-05-13T12:25:42.897Z,2.23
2019-05-13T12:28:11.545Z,1.67
2019-05-13T12:30:43.844Z,2.17
2019-05-13T12:33:13.726Z,2.30
2019-05-13T12:35:42.815Z,2.20
2019-05-13T12:38:13.223Z,2.13
2019-05-13T12:40:43.961Z,2.60
2019-05-13T12:43:14.093Z,1.97
2019-05-13T12:45:43.841Z,2.20
2019-05-13T12:48:14.125Z,1.97
2019-05-13T12:50:43.748Z,2.07
2019-05-13T12:53:16.760Z,2.30
2019-05-13T12:55:55.751Z,2.20
2019-05-13T12:58:23.752Z,2.03
2019-05-13T13:00:57.221Z,2.40
2019-05-13T13:03:26.372Z,2.20
2019-05-13T13:06:20.973Z,2.47
2019-05-13T13:08:43.059Z,2.80
2019-05-13T13:11:03.071Z,1.83
2019-05-13T13:13:57.501Z,2.40
2019-05-13T13:16:12.454Z,2.30
2019-05-13T13:18:52.099Z,2.50
2019-05-13T13:21:33.648Z,1.97
2019-05-13T13:24:04.565Z,2.17
2019-05-13T13:26:33.912Z,2.00
2019-05-13T13:29:04.865Z,1.70
2019-05-13T13:31:36.770Z,2.43
2019-05-13T13:34:18.309Z,2.53
2019-05-13T13:36:47.686Z,1.90
2019-05-13T13:39:25.517Z,1.90
2019-05-13T13:42:05.454Z,1.60
2019-05-13T13:44:36.637Z,2.00
2019-05-13T13:47:07.790Z,2.03
2019-05-13T13:49:43.623Z,2.00
2019-05-13T13:52:16.119Z,1.80
2019-05-13T13:54:44.171Z,2.07
2019-05-13T13:57:25.671Z,1.93
2019-05-13T14:00:19.739Z,1.97
2019-05-13T14:02:37.301Z,2.43
2019-05-13T14:05:08.522Z,2.73
2019-05-13T14:07:39.005Z,1.63
2019-05-13T14:10:15.673Z,1.77
2019-05-13T14:12:45.111Z,2.17
2019-05-13T14:15:16.122Z,1.90
2019-05-13T14:17:46.597Z,1.50
2019-05-13T14:20:16.695Z,1.77
2019-05-13T14:22:46.637Z,1.60
2019-05-13T14:25:17.274Z,2.47
2019-05-13T14:27:54.414Z,1.47
2019-05-13T14:30:28.008Z,1.63
2019-05-13T14:32:57.058Z,1.50
2019-05-13T14:35:31.362Z,1.60
2019-05-13T14:38:02.508Z,1.27
2019-05-13T14:40:32.892Z,1.87
2019-05-13T14:43:03.734Z,1.93
2019-05-13T14:45:37.968Z,1.90
2019-05-13T14:48:07.030Z,1.40
2019-05-13T14:50:36.417Z,2.03
2019-05-13T14:53:07.267Z,1.30
2019-05-13T14:55:37.648Z,1.80
2019-05-13T14:58:07.762Z,1.20
2019-05-13T15:00:42.827Z,2.03
2019-05-13T15:03:13.022Z,1.50
2019-05-13T15:05:44.335Z,1.40
2019-05-13T15:08:13.810Z,1.30
2019-05-13T15:10:47.585Z,1.87
2019-05-13T15:13:16.720Z,1.63
2019-05-13T15:15:47.664Z,1.90
2019-05-13T15:18:18.723Z,1.60
2019-05-13T15:20:47.923Z,1.60
2019-05-13T15:23:18.635Z,1.87
2019-05-13T15:25:51.499Z,1.50
2019-05-13T15:28:23.070Z,1.80
2019-05-13T15:30:53.596Z,1.40
2019-05-13T15:33:25.876Z,1.53
2019-05-13T15:35:55.217Z,1.40
2019-05-13T15:38:24.298Z,1.67
2019-05-13T15:40:53.366Z,1.60
2019-05-13T15:43:22.527Z,1.60
2019-05-13T15:45:51.627Z,2.00
2019-05-13T15:48:22.643Z,1.30
2019-05-13T15:50:54.553Z,2.17
2019-05-13T15:53:23.772Z,1.90
2019-05-13T15:55:52.885Z,1.60
2019-05-13T15:58:38.074Z,1.50
2019-05-13T16:00:54.639Z,1.67
2019-05-13T16:03:28.934Z,1.67
2019-05-13T16:05:58.018Z,1.37
2019-05-13T16:08:27.348Z,1.20
2019-05-13T16:11:02.193Z,1.40
2019-05-13T16:13:31.802Z,2.63
2019-05-13T16:16:06.080Z,1.67
2019-05-13T16:18:35.207Z,1.40
2019-05-13T16:21:04.311Z,1.23
2019-05-13T16:23:33.382Z,2.00
2019-05-13T16:26:02.458Z,1.60
2019-05-13T16:28:32.520Z,1.27
2019-05-13T16:31:02.992Z,1.93
2019-05-13T16:33:32.176Z,0.97
2019-05-13T16:36:03.757Z,1.20
2019-05-13T16:38:33.178Z,1.50
2019-05-13T16:41:05.946Z,1.80
2019-05-13T16:43:36.780Z,1.43
2019-05-13T16:46:11.923Z,1.40
2019-05-13T16:48:43.126Z,1.40
2019-05-13T16:51:13.491Z,1.60
2019-05-13T16:53:46.869Z,1.50
2019-05-13T16:56:26.738Z,1.70
2019-05-13T16:58:52.028Z,1.30
2019-05-13T17:01:21.995Z,1.60
2019-05-13T17:04:02.391Z,1.63
2019-05-13T17:06:32.110Z,1.40
2019-05-13T17:09:11.503Z,1.50
2019-05-13T17:11:41.699Z,1.40
2019-05-13T17:14:10.695Z,1.67
2019-05-13T17:16:41.425Z,1.10
2019-05-13T17:19:18.711Z,1.37
2019-05-13T17:21:47.791Z,1.47
2019-05-13T17:24:16.928Z,1.20
2019-05-13T17:26:46.083Z,1.50
2019-05-13T17:29:15.383Z,1.40
2019-05-13T17:31:51.358Z,1.60
2019-05-13T17:34:21.180Z,1.20
2019-05-13T17:36:52.051Z,1.20
2019-05-13T17:39:21.404Z,1.40
2019-05-13T17:41:52.308Z,1.00
2019-05-13T17:44:21.937Z,1.00
2019-05-13T17:46:52.247Z,1.30
2019-05-13T17:49:22.226Z,1.10
2019-05-13T17:51:51.798Z,1.47
2019-05-13T17:54:22.544Z,1.40
2019-05-13T17:56:51.803Z,1.50
2019-05-13T17:59:21.890Z,1.60
2019-05-13T18:01:52.225Z,1.10
2019-05-13T18:04:22.699Z,1.40
2019-05-13T18:06:58.629Z,1.83
2019-05-13T18:09:31.882Z,1.50
2019-05-13T18:12:02.703Z,1.40
2019-05-13T18:14:37.469Z,0.87
2019-05-13T18:17:06.680Z,1.50
2019-05-13T18:19:37.789Z,1.43
2019-05-13T18:22:06.899Z,1.53
2019-05-13T18:24:37.810Z,1.50
2019-05-13T18:27:06.892Z,1.60
2019-05-13T18:29:35.960Z,1.60
2019-05-13T18:32:06.135Z,1.47
2019-05-13T18:34:37.111Z,1.40
2019-05-13T18:37:12.014Z,1.47
2019-05-13T18:39:46.812Z,1.27
2019-05-13T18:42:18.134Z,1.27
2019-05-13T18:44:48.607Z,1.30
2019-05-13T18:47:22.132Z,1.27
2019-05-13T18:49:52.559Z,1.63
2019-05-13T18:52:25.599Z,1.53
2019-05-13T18:54:57.524Z,1.60
2019-05-13T18:57:34.184Z,1.40
2019-05-13T19:00:03.400Z,1.30
2019-05-13T19:02:32.509Z,1.40
2019-05-13T19:05:01.994Z,1.40
2019-05-13T19:07:32.497Z,1.40
2019-05-13T19:10:03.402Z,1.37
2019-05-13T19:12:32.651Z,1.43
2019-05-13T19:15:02.550Z,1.47
2019-05-13T19:17:32.373Z,1.40
2019-05-13T19:20:04.596Z,1.63
2019-05-13T19:22:38.142Z,2.03
2019-05-13T19:25:11.879Z,1.70
2019-05-13T19:27:42.487Z,1.43
2019-05-13T19:30:14.207Z,1.90
2019-05-13T19:32:44.334Z,1.43
2019-05-13T19:35:13.470Z,1.60
2019-05-13T19:37:44.627Z,1.50
2019-05-13T19:40:13.796Z,1.50
2019-05-13T19:42:43.864Z,1.47
2019-05-13T19:45:15.900Z,1.70
2019-05-13T19:47:46.904Z,2.03
2019-05-13T19:50:17.519Z,1.97
2019-05-13T19:52:46.667Z,1.80
2019-05-13T19:55:15.778Z,2.00
2019-05-13T19:57:46.266Z,1.70
2019-05-13T20:00:15.822Z,1.83
2019-05-13T20:02:44.911Z,1.73
2019-05-13T20:05:14.003Z,1.77
2019-05-13T20:07:43.057Z,1.80
2019-05-13T20:10:13.080Z,1.80
2019-05-13T20:12:42.288Z,1.63
2019-05-13T20:15:14.267Z,2.10
2019-05-13T20:17:43.337Z,1.70
2019-05-13T20:20:12.820Z,1.63
2019-05-13T20:22:51.640Z,2.13
2019-05-13T20:25:25.448Z,1.60
2019-05-13T20:27:54.547Z,1.97
2019-05-13T20:30:23.696Z,2.00
2019-05-13T20:32:52.779Z,2.10
2019-05-13T20:35:23.123Z,1.90
2019-05-13T20:37:53.289Z,1.97
2019-05-13T20:40:22.335Z,1.67
2019-05-13T20:42:52.859Z,1.70
2019-05-13T20:45:22.535Z,2.23
2019-05-13T20:47:52.108Z,1.93
2019-05-13T20:50:21.684Z,1.93
2019-05-13T20:52:51.590Z,2.07
2019-05-13T20:55:24.131Z,1.87
2019-05-13T20:57:53.325Z,1.70
2019-05-13T21:00:22.373Z,2.17
2019-05-13T21:02:51.795Z,1.63
2019-05-13T21:05:22.782Z,1.70
2019-05-13T21:07:52.011Z,2.23
2019-05-13T21:10:21.355Z,1.70
2019-05-13T21:12:51.517Z,1.83
2019-05-13T21:15:21.064Z,1.73
2019-05-13T21:17:51.572Z,2.13
2019-05-13T21:20:36.091Z,1.83
2019-05-13T21:23:11.418Z,1.77
2019-05-13T21:25:41.870Z,1.80
2019-05-13T21:28:11.492Z,2.00
2019-05-13T21:30:42.571Z,1.77
2019-05-13T21:33:17.692Z,2.37
2019-05-13T21:35:48.524Z,2.57
2019-05-13T21:38:18.675Z,2.00
2019-05-13T21:40:52.354Z,2.17
2019-05-13T21:43:21.744Z,2.23
2019-05-13T21:45:52.268Z,2.17
2019-05-13T21:48:21.862Z,2.80
2019-05-13T21:50:52.085Z,2.17
2019-05-13T21:53:24.277Z,2.10
2019-05-13T21:55:56.698Z,1.63
2019-05-13T21:58:25.761Z,1.90
2019-05-13T22:00:56.587Z,1.97
2019-05-13T22:03:26.494Z,1.90
2019-05-13T22:05:58.502Z,1.70
2019-05-13T22:08:27.573Z,2.20
2019-05-13T22:10:57.071Z,2.07
2019-05-13T22:13:26.147Z,1.83
2019-05-13T22:18:57.739Z,2.10
2019-05-13T22:21:26.806Z,1.73
2019-05-13T22:23:58.795Z,1.70
2019-05-13T22:26:31.078Z,1.80
2019-05-13T22:29:02.828Z,1.50
2019-05-13T22:31:37.844Z,1.73
2019-05-13T22:34:07.994Z,1.90
2019-05-13T22:36:37.166Z,1.67
2019-05-13T22:39:07.289Z,1.77
2019-05-13T22:41:37.872Z,1.73
2019-05-13T22:44:08.275Z,1.80
2019-05-13T22:46:37.320Z,1.80
2019-05-13T22:49:06.436Z,2.23
2019-05-13T22:51:37.232Z,2.10
2019-05-13T22:54:06.267Z,1.93
2019-05-13T22:56:35.316Z,2.20
2019-05-13T22:59:05.384Z,2.00
2019-05-13T23:01:34.486Z,1.87
2019-05-13T23:04:05.915Z,1.90
2019-05-13T23:06:41.565Z,2.00
2019-05-13T23:09:12.525Z,1.80
2019-05-13T23:11:41.871Z,1.70
2019-05-13T23:14:13.435Z,2.23
2019-05-13T23:16:44.546Z,2.57
2019-05-13T23:19:17.424Z,2.10
2019-05-13T23:21:51.005Z,1.67
2019-05-13T23:24:24.582Z,1.73
2019-05-13T23:26:55.438Z,1.70
2019-05-13T23:29:28.127Z,1.87
2019-05-13T23:31:57.221Z,2.20
2019-05-13T23:34:28.151Z,1.73
2019-05-13T23:37:03.276Z,1.40
2019-05-13T23:39:32.402Z,2.20
2019-05-13T23:42:01.567Z,2.10
2019-05-13T23:44:32.414Z,2.13
2019-05-13T23:47:01.482Z,1.90
2019-05-13T23:49:33.592Z,2.23
2019-05-13T23:52:02.706Z,2.20
2019-05-13T23:54:31.764Z,2.73
2019-05-13T23:57:01.249Z,2.23
2019-05-13T23:59:31.384Z,2.00
